Time,TemperatureF,DewpointF,PressureIn,WindDirection,WindDirectionDegrees,WindSpeedMPH,WindSpeedGustMPH,Humidity,HourlyPrecipIn,Conditions,Clouds,dailyrainin,SoftwareType,DateUTC
2013-07-21 00:01:00,69.3,65.3,29.79,WNW,298,0.0,0.0,87,0.00,,,0.22,meteohub,2013-07-21 04:01:00,
2013-07-21 00:02:00,69.3,65.5,29.79,WNW,298,0.0,0.0,88,0.00,,,0.22,meteohub,2013-07-21 04:02:00,
2013-07-21 00:07:00,69.3,65.8,29.79,WNW,298,0.0,0.0,89,0.00,,,0.00,meteohub,2013-07-21 04:07:00,
2013-07-21 00:12:00,68.9,65.5,29.80,WNW,298,0.0,0.0,89,0.00,,,0.00,meteohub,2013-07-21 04:12:00,
2013-07-21 00:17:00,68.7,65.3,29.80,WNW,298,0.0,0.0,89,0.00,,,0.00,meteohub,2013-07-21 04:17:00,
2013-07-21 00:22:00,68.5,65.1,29.80,WNW,298,0.0,0.0,89,0.00,,,0.00,meteohub,2013-07-21 04:22:00,
2013-07-21 00:27:00,68.4,64.9,29.80,WNW,298,0.0,0.0,89,0.00,,,0.00,meteohub,2013-07-21 04:27:00,
2013-07-21 00:32:00,68.4,64.9,29.80,WNW,298,0.0,0.0,89,0.00,,,0.00,meteohub,2013-07-21 04:32:00,
2013-07-21 00:37:00,68.4,65.3,29.80,WNW,298,0.0,0.0,90,0.00,,,0.00,meteohub,2013-07-21 04:37:00,
2013-07-21 00:42:00,68.2,65.1,29.80,WNW,298,0.0,0.0,90,0.00,,,0.00,meteohub,2013-07-21 04:42:00,
2013-07-21 00:47:00,68.2,65.1,29.80,WNW,298,0.0,0.0,90,0.00,,,0.00,meteohub,2013-07-21 04:47:00,
2013-07-21 00:52:00,67.8,64.8,29.80,WNW,298,0.0,0.0,90,0.00,,,0.00,meteohub,2013-07-21 04:52:00,
2013-07-21 00:57:00,67.6,64.9,29.80,WNW,298,0.0,0.0,91,0.00,,,0.00,meteohub,2013-07-21 04:57:00,
2013-07-21 01:02:00,67.6,64.6,29.80,WNW,298,0.0,0.0,90,0.00,,,0.00,meteohub,2013-07-21 05:02:00,
2013-07-21 01:07:00,67.6,64.6,29.80,WNW,298,0.0,0.0,90,0.00,,,0.00,meteohub,2013-07-21 05:07:00,
2013-07-21 01:13:00,67.5,64.4,29.80,WNW,298,0.0,0.0,90,0.00,,,0.00,meteohub,2013-07-21 05:13:00,
2013-07-21 01:18:00,67.5,64.4,29.81,WNW,298,0.0,0.0,90,0.00,,,0.00,meteohub,2013-07-21 05:18:00,
2013-07-21 01:23:00,67.5,64.4,29.81,WNW,298,0.0,0.0,90,0.00,,,0.00,meteohub,2013-07-21 05:23:00,
2013-07-21 01:28:00,67.5,64.4,29.81,WNW,298,0.0,0.0,90,0.00,,,0.00,meteohub,2013-07-21 05:28:00,
2013-07-21 01:33:00,67.6,64.6,29.81,WNW,298,0.0,0.0,90,0.00,,,0.00,meteohub,2013-07-21 05:33:00,
2013-07-21 01:38:00,67.6,64.6,29.81,WNW,298,0.0,0.0,90,0.00,,,0.00,meteohub,2013-07-21 05:38:00,
2013-07-21 01:43:00,67.6,64.6,29.81,WNW,298,0.0,0.0,90,0.00,,,0.00,meteohub,2013-07-21 05:43:00,
2013-07-21 01:48:00,67.6,64.6,29.81,WNW,298,0.0,0.0,90,0.00,,,0.00,meteohub,2013-07-21 05:48:00,
2013-07-21 01:53:00,67.5,64.4,29.81,WNW,298,0.0,0.0,90,0.00,,,0.00,meteohub,2013-07-21 05:53:00,
2013-07-21 01:58:00,67.5,64.4,29.81,WNW,298,0.0,1.0,90,0.00,,,0.00,meteohub,2013-07-21 05:58:00,
2013-07-21 02:03:00,67.6,64.2,29.81,WNW,298,0.0,1.0,89,0.00,,,0.00,meteohub,2013-07-21 06:03:00,
2013-07-21 02:08:00,68.0,64.4,29.81,WNW,298,0.0,1.0,88,0.00,,,0.00,meteohub,2013-07-21 06:08:00,
2013-07-21 02:13:00,68.4,64.6,29.81,WNW,298,0.0,1.0,88,0.00,,,0.00,meteohub,2013-07-21 06:13:00,
2013-07-21 02:18:00,67.8,64.2,29.81,WNW,298,0.0,1.0,88,0.00,,,0.00,meteohub,2013-07-21 06:18:00,
2013-07-21 02:23:00,67.6,64.2,29.82,WNW,298,0.0,1.0,89,0.00,,,0.00,meteohub,2013-07-21 06:23:00,
2013-07-21 02:28:00,67.5,63.9,29.82,WNW,298,0.0,0.0,88,0.00,,,0.00,meteohub,2013-07-21 06:28:00,
2013-07-21 02:33:00,67.1,63.7,29.82,WNW,298,0.0,0.0,89,0.00,,,0.00,meteohub,2013-07-21 06:33:00,
2013-07-21 02:38:00,66.9,63.5,29.82,WNW,298,0.0,0.0,89,0.00,,,0.00,meteohub,2013-07-21 06:38:00,
2013-07-21 02:43:00,66.7,63.7,29.82,WNW,298,0.0,0.0,90,0.00,,,0.00,meteohub,2013-07-21 06:43:00,
2013-07-21 02:48:00,66.7,63.7,29.82,WNW,298,0.0,0.0,90,0.00,,,0.00,meteohub,2013-07-21 06:48:00,
2013-07-21 02:53:00,66.7,63.3,29.82,WNW,298,0.0,0.0,89,0.00,,,0.00,meteohub,2013-07-21 06:53:00,
2013-07-21 02:58:00,66.7,63.7,29.82,WNW,298,0.0,0.0,90,0.00,,,0.00,meteohub,2013-07-21 06:58:00,
2013-07-21 03:03:00,66.7,63.3,29.82,WNW,298,0.0,0.0,89,0.00,,,0.00,meteohub,2013-07-21 07:03:00,
2013-07-21 03:09:00,66.7,63.3,29.82,WNW,298,0.0,1.0,89,0.00,,,0.00,meteohub,2013-07-21 07:09:00,
2013-07-21 03:14:00,66.9,63.5,29.82,WNW,298,0.0,1.0,89,0.00,,,0.00,meteohub,2013-07-21 07:14:00,
2013-07-21 03:19:00,67.1,63.5,29.82,WNW,298,0.0,1.0,88,0.00,,,0.00,meteohub,2013-07-21 07:19:00,
2013-07-21 03:24:00,67.3,63.9,29.82,WNW,298,0.0,0.0,89,0.00,,,0.00,meteohub,2013-07-21 07:24:00,
2013-07-21 03:29:00,67.3,63.9,29.82,WNW,298,0.0,0.0,89,0.00,,,0.00,meteohub,2013-07-21 07:29:00,
2013-07-21 03:34:00,67.5,64.0,29.82,WNW,298,0.0,0.0,89,0.00,,,0.00,meteohub,2013-07-21 07:34:00,
2013-07-21 03:39:00,67.5,63.9,29.82,WNW,298,0.0,0.0,88,0.00,,,0.00,meteohub,2013-07-21 07:39:00,
2013-07-21 03:44:00,67.6,64.0,29.82,WNW,298,0.0,0.0,88,0.00,,,0.00,meteohub,2013-07-21 07:44:00,
2013-07-21 03:49:00,67.6,63.7,29.82,WNW,298,0.0,0.0,87,0.00,,,0.00,meteohub,2013-07-21 07:49:00,
2013-07-21 03:54:00,67.6,64.2,29.82,WNW,298,0.0,0.0,89,0.00,,,0.00,meteohub,2013-07-21 07:54:00,
2013-07-21 03:59:00,67.6,64.2,29.81,WNW,298,0.0,0.0,89,0.00,,,0.00,meteohub,2013-07-21 07:59:00,
2013-07-21 04:04:00,67.5,64.0,29.81,WNW,298,0.0,1.0,89,0.00,,,0.00,meteohub,2013-07-21 08:04:00,
2013-07-21 04:09:00,67.3,63.9,29.82,WNW,298,0.0,1.0,89,0.00,,,0.00,meteohub,2013-07-21 08:09:00,
2013-07-21 04:14:00,67.3,63.9,29.82,WNW,298,0.0,1.0,89,0.00,,,0.00,meteohub,2013-07-21 08:14:00,
2013-07-21 04:19:00,67.1,63.5,29.82,WNW,298,0.0,0.0,88,0.00,,,0.00,meteohub,2013-07-21 08:19:00,
2013-07-21 04:24:00,67.1,63.5,29.83,WNW,298,0.0,0.0,88,0.00,,,0.00,meteohub,2013-07-21 08:24:00,
2013-07-21 04:29:00,67.3,63.7,29.83,WNW,298,0.0,0.0,88,0.00,,,0.00,meteohub,2013-07-21 08:29:00,
2013-07-21 04:34:00,67.3,63.9,29.83,WNW,298,0.0,0.0,89,0.00,,,0.00,meteohub,2013-07-21 08:34:00,
2013-07-21 04:39:00,67.5,64.0,29.83,WNW,298,0.0,0.0,89,0.00,,,0.00,meteohub,2013-07-21 08:39:00,
2013-07-21 04:44:00,67.5,63.9,29.83,WNW,298,0.0,0.0,88,0.00,,,0.00,meteohub,2013-07-21 08:44:00,
2013-07-21 04:49:00,67.5,63.9,29.83,WNW,298,0.0,0.0,88,0.00,,,0.00,meteohub,2013-07-21 08:49:00,
2013-07-21 04:54:00,67.6,64.2,29.84,WNW,298,0.0,0.0,89,0.00,,,0.00,meteohub,2013-07-21 08:54:00,
2013-07-21 04:59:00,67.6,64.2,29.84,WNW,298,0.0,0.0,89,0.00,,,0.00,meteohub,2013-07-21 08:59:00,
2013-07-21 05:00:00,67.8,64.4,29.83,WNW,298,0.0,0.0,89,0.00,,,0.00,meteohub,2013-07-21 09:00:00,
2013-07-21 05:05:00,67.6,64.0,29.84,WNW,298,0.0,0.0,88,0.00,,,0.00,meteohub,2013-07-21 09:05:00,
2013-07-21 05:10:00,67.5,63.9,29.84,WNW,298,0.0,0.0,88,0.00,,,0.00,meteohub,2013-07-21 09:10:00,
2013-07-21 05:15:00,67.5,63.9,29.84,WNW,298,0.0,0.0,88,0.00,,,0.00,meteohub,2013-07-21 09:15:00,
2013-07-21 05:20:00,67.6,63.7,29.85,WNW,298,0.0,0.0,87,0.00,,,0.00,meteohub,2013-07-21 09:20:00,
2013-07-21 05:25:00,67.5,64.0,29.85,WNW,298,0.0,0.0,89,0.00,,,0.00,meteohub,2013-07-21 09:25:00,
2013-07-21 05:30:00,67.3,63.9,29.85,WNW,298,0.0,1.0,89,0.00,,,0.00,meteohub,2013-07-21 09:30:00,
2013-07-21 05:35:00,66.9,63.5,29.86,WNW,298,0.0,1.0,89,0.00,,,0.00,meteohub,2013-07-21 09:35:00,
2013-07-21 05:40:00,66.9,63.5,29.86,WNW,298,0.0,1.0,89,0.00,,,0.00,meteohub,2013-07-21 09:40:00,
2013-07-21 05:45:00,66.9,63.5,29.86,WNW,298,0.0,0.0,89,0.00,,,0.00,meteohub,2013-07-21 09:45:00,
2013-07-21 05:50:00,66.9,63.5,29.86,WNW,298,0.0,0.0,89,0.00,,,0.00,meteohub,2013-07-21 09:50:00,
2013-07-21 05:55:00,67.1,64.0,29.86,WNW,298,0.0,0.0,90,0.00,,,0.00,meteohub,2013-07-21 09:55:00,
2013-07-21 06:00:00,66.9,63.5,29.86,WNW,298,0.0,0.0,89,0.00,,,0.00,meteohub,2013-07-21 10:00:00,
2013-07-21 06:05:00,66.9,63.5,29.86,WNW,298,0.0,0.0,89,0.00,,,0.00,meteohub,2013-07-21 10:05:00,
2013-07-21 06:10:00,66.7,63.1,29.86,WNW,298,0.0,0.0,88,0.00,,,0.00,meteohub,2013-07-21 10:10:00,
2013-07-21 06:15:00,66.7,63.7,29.86,WNW,298,0.0,0.0,90,0.00,,,0.00,meteohub,2013-07-21 10:15:00,
2013-07-21 06:20:00,66.7,63.7,29.87,WNW,298,0.0,0.0,90,0.00,,,0.00,meteohub,2013-07-21 10:20:00,
2013-07-21 06:25:00,66.7,63.7,29.87,WNW,282,0.0,0.0,90,0.00,,,0.00,meteohub,2013-07-21 10:25:00,
2013-07-21 06:30:00,66.7,63.7,29.87,SW,236,0.0,0.0,90,0.00,,,0.00,meteohub,2013-07-21 10:30:00,
2013-07-21 06:35:00,66.7,63.7,29.87,SW,236,0.0,0.0,90,0.00,,,0.00,meteohub,2013-07-21 10:35:00,
2013-07-21 06:40:00,66.7,63.3,29.87,SW,236,0.0,0.0,89,0.00,,,0.00,meteohub,2013-07-21 10:40:00,
2013-07-21 06:45:00,67.3,63.7,29.86,SW,236,0.0,0.0,88,0.00,,,0.00,meteohub,2013-07-21 10:45:00,
2013-07-21 06:50:00,67.3,63.3,29.86,SW,236,0.0,0.0,87,0.00,,,0.00,meteohub,2013-07-21 10:50:00,
2013-07-21 06:55:00,67.3,63.3,29.86,SW,236,0.0,0.0,87,0.00,,,0.00,meteohub,2013-07-21 10:55:00,
2013-07-21 07:01:00,67.3,62.6,29.87,SW,236,0.0,0.0,85,0.00,,,0.00,meteohub,2013-07-21 11:01:00,
2013-07-21 07:06:00,67.3,63.0,29.87,SW,236,0.0,0.0,86,0.00,,,0.00,meteohub,2013-07-21 11:06:00,
2013-07-21 07:11:00,67.5,63.1,29.87,SW,236,0.0,0.0,86,0.00,,,0.00,meteohub,2013-07-21 11:11:00,
2013-07-21 07:16:00,67.6,63.0,29.88,SW,214,0.0,0.0,85,0.00,,,0.00,meteohub,2013-07-21 11:16:00,
2013-07-21 07:21:00,68.4,63.3,29.88,SW,215,0.0,0.0,84,0.00,,,0.00,meteohub,2013-07-21 11:21:00,
2013-07-21 07:26:00,68.5,63.9,29.89,SW,215,0.0,0.0,85,0.00,,,0.00,meteohub,2013-07-21 11:26:00,
2013-07-21 07:31:00,68.5,63.9,29.88,SW,215,0.0,0.0,85,0.00,,,0.00,meteohub,2013-07-21 11:31:00,
2013-07-21 07:36:00,68.5,63.9,29.88,SW,215,0.0,0.0,85,0.00,,,0.00,meteohub,2013-07-21 11:36:00,
2013-07-21 07:41:00,68.5,63.5,29.88,SW,215,0.0,0.0,84,0.00,,,0.00,meteohub,2013-07-21 11:41:00,
2013-07-21 07:46:00,69.1,64.0,29.88,SW,215,0.0,0.0,84,0.00,,,0.00,meteohub,2013-07-21 11:46:00,
2013-07-21 07:51:00,69.3,64.2,29.89,SW,215,0.0,0.0,84,0.00,,,0.00,meteohub,2013-07-21 11:51:00,
2013-07-21 07:56:00,69.6,64.6,29.89,SW,215,0.0,0.0,84,0.00,,,0.00,meteohub,2013-07-21 11:56:00,
2013-07-21 08:01:00,70.2,65.1,29.89,SW,215,0.0,1.0,84,0.00,,,0.00,meteohub,2013-07-21 12:01:00,
2013-07-21 08:06:00,70.5,65.1,29.90,SW,215,0.0,1.0,83,0.00,,,0.00,meteohub,2013-07-21 12:06:00,
2013-07-21 08:11:00,70.9,65.8,29.90,SW,215,0.0,1.0,84,0.00,,,0.00,meteohub,2013-07-21 12:11:00,
2013-07-21 08:16:00,71.2,65.5,29.91,SW,215,0.0,0.0,82,0.00,,,0.00,meteohub,2013-07-21 12:16:00,
2013-07-21 08:21:00,71.4,66.0,29.91,SW,215,0.0,1.0,83,0.00,,,0.00,meteohub,2013-07-21 12:21:00,
2013-07-21 08:26:00,71.8,65.7,29.91,SW,215,0.0,1.0,81,0.00,,,0.00,meteohub,2013-07-21 12:26:00,
2013-07-21 08:31:00,72.0,65.5,29.91,SW,215,0.0,1.0,80,0.00,,,0.00,meteohub,2013-07-21 12:31:00,
2013-07-21 08:36:00,72.0,65.5,29.91,SW,215,0.0,1.0,80,0.00,,,0.00,meteohub,2013-07-21 12:36:00,
2013-07-21 08:41:00,72.0,65.5,29.91,SW,215,0.0,1.0,80,0.00,,,0.00,meteohub,2013-07-21 12:41:00,
2013-07-21 08:46:00,72.1,65.3,29.91,SW,215,0.0,1.0,79,0.00,,,0.00,meteohub,2013-07-21 12:46:00,
2013-07-21 08:51:00,72.9,65.7,29.91,West,271,1.0,1.0,78,0.00,,,0.00,meteohub,2013-07-21 12:51:00,
2013-07-21 08:56:00,73.0,64.9,29.91,West,271,0.0,3.0,76,0.00,,,0.00,meteohub,2013-07-21 12:56:00,
2013-07-21 09:01:00,73.4,66.2,29.91,West,271,0.0,3.0,78,0.00,,,0.00,meteohub,2013-07-21 13:01:00,
2013-07-21 09:06:00,73.6,66.7,29.91,West,271,0.0,1.0,79,0.00,,,0.00,meteohub,2013-07-21 13:06:00,
2013-07-21 09:11:00,73.2,66.0,29.91,West,271,0.0,1.0,78,0.00,,,0.00,meteohub,2013-07-21 13:11:00,
2013-07-21 09:16:00,73.2,65.7,29.92,West,271,0.0,0.0,77,0.00,,,0.00,meteohub,2013-07-21 13:16:00,
2013-07-21 09:21:00,73.8,66.4,29.92,WSW,242,0.0,0.0,78,0.00,,,0.00,meteohub,2013-07-21 13:21:00,
2013-07-21 09:26:00,73.9,65.1,29.91,SSW,209,0.0,2.0,74,0.00,,,0.00,meteohub,2013-07-21 13:26:00,
2013-07-21 09:31:00,74.1,65.7,29.91,SSW,209,0.0,2.0,75,0.00,,,0.00,meteohub,2013-07-21 13:31:00,
2013-07-21 09:36:00,74.1,65.7,29.91,SSW,209,0.0,2.0,75,0.00,,,0.00,meteohub,2013-07-21 13:36:00,
2013-07-21 09:41:00,74.5,66.4,29.91,West,265,0.0,2.0,76,0.00,,,0.00,meteohub,2013-07-21 13:41:00,
2013-07-21 09:46:00,74.8,66.4,29.91,ESE,121,1.0,3.0,75,0.00,,,0.00,meteohub,2013-07-21 13:46:00,
2013-07-21 09:51:00,75.2,66.4,29.91,ESE,121,0.0,3.0,74,0.00,,,0.00,meteohub,2013-07-21 13:51:00,
2013-07-21 09:56:00,76.1,66.7,29.91,West,276,0.0,3.0,73,0.00,,,0.00,meteohub,2013-07-21 13:56:00,
2013-07-21 10:01:00,76.3,67.5,29.91,West,276,0.0,2.0,74,0.00,,,0.00,meteohub,2013-07-21 14:01:00,
2013-07-21 10:06:00,76.3,66.9,29.91,West,276,0.0,2.0,73,0.00,,,0.00,meteohub,2013-07-21 14:06:00,
2013-07-21 10:11:00,76.8,66.2,29.91,West,276,0.0,2.0,70,0.00,,,0.00,meteohub,2013-07-21 14:11:00,
2013-07-21 10:16:00,78.3,67.6,29.91,West,276,0.0,2.0,70,0.00,,,0.00,meteohub,2013-07-21 14:16:00,
2013-07-21 10:21:00,79.0,66.6,29.91,West,275,0.0,2.0,66,0.00,,,0.00,meteohub,2013-07-21 14:21:00,
2013-07-21 10:27:00,79.3,68.4,29.91,West,275,0.0,2.0,69,0.00,,,0.00,meteohub,2013-07-21 14:27:00,
2013-07-21 10:32:00,78.1,65.3,29.91,South,181,1.0,2.0,65,0.00,,,0.00,meteohub,2013-07-21 14:32:00,
2013-07-21 10:37:00,77.2,65.8,29.91,South,180,1.0,3.0,68,0.00,,,0.00,meteohub,2013-07-21 14:37:00,
2013-07-21 10:42:00,79.7,67.8,29.91,West,261,1.0,3.0,67,0.00,,,0.00,meteohub,2013-07-21 14:42:00,
2013-07-21 10:47:00,80.1,65.8,29.91,WSW,242,1.0,2.0,62,0.00,,,0.00,meteohub,2013-07-21 14:47:00,
2013-07-21 10:52:00,80.6,67.3,29.91,WSW,242,0.0,2.0,64,0.00,,,0.00,meteohub,2013-07-21 14:52:00,
2013-07-21 10:57:00,81.1,68.2,29.91,SSE,166,0.0,2.0,65,0.00,,,0.00,meteohub,2013-07-21 14:57:00,
2013-07-21 11:02:00,80.8,67.5,29.91,South,175,0.0,2.0,64,0.00,,,0.00,meteohub,2013-07-21 15:02:00,
2013-07-21 11:07:00,79.5,65.3,29.92,South,175,0.0,1.0,62,0.00,,,0.00,meteohub,2013-07-21 15:07:00,
2013-07-21 11:12:00,78.4,65.3,29.92,South,173,1.0,1.0,64,0.00,,,0.00,meteohub,2013-07-21 15:12:00,
2013-07-21 11:17:00,79.3,66.0,29.92,South,173,1.0,2.0,64,0.00,,,0.00,meteohub,2013-07-21 15:17:00,
2013-07-21 11:22:00,79.5,65.8,29.92,South,173,0.0,2.0,63,0.00,,,0.00,meteohub,2013-07-21 15:22:00,
2013-07-21 11:27:00,78.6,66.4,29.92,South,173,1.0,2.0,66,0.00,,,0.00,meteohub,2013-07-21 15:27:00,
2013-07-21 11:32:00,80.4,68.0,29.92,South,173,0.0,2.0,66,0.00,,,0.00,meteohub,2013-07-21 15:32:00,
2013-07-21 11:37:00,80.6,67.8,29.92,South,173,0.0,2.0,65,0.00,,,0.00,meteohub,2013-07-21 15:37:00,
2013-07-21 11:42:00,80.2,66.6,29.92,South,173,0.0,2.0,63,0.00,,,0.00,meteohub,2013-07-21 15:42:00,
2013-07-21 11:47:00,81.9,66.6,29.92,WSW,257,2.0,2.0,60,0.00,,,0.00,meteohub,2013-07-21 15:47:00,
2013-07-21 11:52:00,83.5,68.5,29.92,West,259,0.0,2.0,61,0.00,,,0.00,meteohub,2013-07-21 15:52:00,
2013-07-21 11:57:00,84.0,68.7,29.92,WSW,258,1.0,3.0,60,0.00,,,0.00,meteohub,2013-07-21 15:57:00,
2013-07-21 12:02:00,85.3,68.4,29.92,WSW,258,0.0,3.0,57,0.00,,,0.00,meteohub,2013-07-21 16:02:00,
2013-07-21 12:07:00,84.7,67.3,29.92,West,269,1.0,2.0,56,0.00,,,0.00,meteohub,2013-07-21 16:07:00,
2013-07-21 12:12:00,83.8,66.9,29.92,West,269,1.0,2.0,57,0.00,,,0.00,meteohub,2013-07-21 16:12:00,
2013-07-21 12:17:00,82.9,66.2,29.92,West,280,1.0,2.0,57,0.00,,,0.00,meteohub,2013-07-21 16:17:00,
2013-07-21 12:22:00,83.3,66.9,29.92,West,281,1.0,2.0,58,0.00,,,0.00,meteohub,2013-07-21 16:22:00,
2013-07-21 12:27:00,84.6,67.1,29.92,West,277,0.0,2.0,56,0.00,,,0.00,meteohub,2013-07-21 16:27:00,
2013-07-21 12:32:00,83.7,66.4,29.92,WNW,284,2.0,2.0,56,0.00,,,0.00,meteohub,2013-07-21 16:32:00,
2013-07-21 12:37:00,83.5,66.6,29.92,WNW,284,2.0,2.0,57,0.00,,,0.00,meteohub,2013-07-21 16:37:00,
2013-07-21 12:42:00,82.2,66.0,29.92,WNW,284,0.0,2.0,58,0.00,,,0.00,meteohub,2013-07-21 16:42:00,
2013-07-21 12:47:00,82.6,67.3,29.92,WNW,284,0.0,2.0,60,0.00,,,0.00,meteohub,2013-07-21 16:47:00,
2013-07-21 12:52:00,84.7,68.9,29.92,WNW,284,0.0,2.0,59,0.00,,,0.00,meteohub,2013-07-21 16:52:00,
2013-07-21 12:57:00,84.7,66.7,29.92,WNW,284,0.0,2.0,55,0.00,,,0.00,meteohub,2013-07-21 16:57:00,
2013-07-21 13:02:00,84.2,65.7,29.91,WNW,284,0.0,2.0,54,0.00,,,0.00,meteohub,2013-07-21 17:02:00,
2013-07-21 13:07:00,82.2,66.4,29.92,WNW,284,0.0,1.0,59,0.00,,,0.00,meteohub,2013-07-21 17:07:00,
2013-07-21 13:12:00,82.6,64.8,29.92,WNW,284,0.0,1.0,55,0.00,,,0.00,meteohub,2013-07-21 17:12:00,
2013-07-21 13:17:00,82.8,63.9,29.91,WNW,284,0.0,1.0,53,0.00,,,0.00,meteohub,2013-07-21 17:17:00,
2013-07-21 13:22:00,84.6,67.1,29.91,WNW,284,0.0,1.0,56,0.00,,,0.00,meteohub,2013-07-21 17:22:00,
2013-07-21 13:27:00,85.5,64.8,29.91,WNW,284,0.0,1.0,50,0.00,,,0.00,meteohub,2013-07-21 17:27:00,
2013-07-21 13:32:00,83.7,64.8,29.91,WNW,284,0.0,1.0,53,0.00,,,0.00,meteohub,2013-07-21 17:32:00,
2013-07-21 13:37:00,82.2,63.3,29.92,WNW,284,0.0,1.0,53,0.00,,,0.00,meteohub,2013-07-21 17:37:00,
2013-07-21 13:41:00,81.9,66.2,29.91,WNW,284,0.0,1.0,59,0.00,,,0.00,meteohub,2013-07-21 17:41:00,
2013-07-21 13:46:00,81.7,66.0,29.92,WNW,284,0.0,1.0,59,0.00,,,0.00,meteohub,2013-07-21 17:46:00,
2013-07-21 13:52:00,81.0,66.2,29.92,WNW,284,0.0,1.0,61,0.00,,,0.00,meteohub,2013-07-21 17:52:00,
2013-07-21 13:57:00,79.9,67.1,29.92,WNW,284,0.0,0.0,65,0.00,,,0.00,meteohub,2013-07-21 17:57:00,
2013-07-21 14:02:00,80.8,68.0,29.92,WNW,284,0.0,0.0,65,0.00,,,0.00,meteohub,2013-07-21 18:02:00,
2013-07-21 14:07:00,80.8,66.9,29.92,WNW,284,0.0,0.0,63,0.00,,,0.00,meteohub,2013-07-21 18:07:00,
2013-07-21 14:12:00,82.9,65.1,29.91,WNW,282,0.0,0.0,55,0.00,,,0.00,meteohub,2013-07-21 18:12:00,
2013-07-21 14:17:00,84.6,63.9,29.91,WNW,282,0.0,1.0,50,0.00,,,0.00,meteohub,2013-07-21 18:17:00,
2013-07-21 14:22:00,85.3,64.6,29.91,WNW,282,0.0,1.0,50,0.00,,,0.00,meteohub,2013-07-21 18:22:00,
2013-07-21 14:27:00,83.8,66.0,29.91,WNW,282,1.0,1.0,55,0.00,,,0.00,meteohub,2013-07-21 18:27:00,
2013-07-21 14:32:00,86.5,66.7,29.91,WNW,282,0.0,1.0,52,0.00,,,0.00,meteohub,2013-07-21 18:32:00,
2013-07-21 14:37:00,84.0,66.2,29.91,WNW,282,0.0,2.0,55,0.00,,,0.00,meteohub,2013-07-21 18:37:00,
2013-07-21 14:42:00,82.9,64.6,29.91,South,182,1.0,2.0,54,0.00,,,0.00,meteohub,2013-07-21 18:42:00,
2013-07-21 14:47:00,82.6,66.4,29.91,SE,134,1.0,2.0,58,0.00,,,0.00,meteohub,2013-07-21 18:47:00,
2013-07-21 14:52:00,83.5,66.2,29.91,ESE,116,0.0,2.0,56,0.00,,,0.00,meteohub,2013-07-21 18:52:00,
2013-07-21 14:57:00,83.8,65.5,29.91,ESE,117,0.0,3.0,54,0.00,,,0.00,meteohub,2013-07-21 18:57:00,
2013-07-21 15:02:00,84.7,64.6,29.91,SE,135,0.0,3.0,51,0.00,,,0.00,meteohub,2013-07-21 19:02:00,
2013-07-21 15:07:00,85.3,65.7,29.91,SE,135,0.0,1.0,52,0.00,,,0.00,meteohub,2013-07-21 19:07:00,
2013-07-21 15:12:00,85.6,66.6,29.91,SE,135,0.0,1.0,53,0.00,,,0.00,meteohub,2013-07-21 19:12:00,
2013-07-21 15:17:00,85.3,67.3,29.91,SE,135,0.0,1.0,55,0.00,,,0.00,meteohub,2013-07-21 19:17:00,
2013-07-21 15:22:00,84.2,67.8,29.91,SE,135,0.0,1.0,58,0.00,,,0.00,meteohub,2013-07-21 19:22:00,
2013-07-21 15:27:00,85.3,66.2,29.91,WSW,240,0.0,2.0,53,0.00,,,0.00,meteohub,2013-07-21 19:27:00,
2013-07-21 15:32:00,85.1,66.0,29.91,WNW,286,0.0,2.0,53,0.00,,,0.00,meteohub,2013-07-21 19:32:00,
2013-07-21 15:37:00,84.6,65.5,29.91,WNW,286,0.0,2.0,53,0.00,,,0.00,meteohub,2013-07-21 19:37:00,
2013-07-21 15:42:00,85.1,66.6,29.91,WNW,286,0.0,2.0,54,0.00,,,0.00,meteohub,2013-07-21 19:42:00,
2013-07-21 15:47:00,84.6,66.6,29.91,WNW,286,1.0,2.0,55,0.00,,,0.00,meteohub,2013-07-21 19:47:00,
2013-07-21 15:52:00,86.4,66.7,29.91,WNW,286,1.0,2.0,52,0.00,,,0.00,meteohub,2013-07-21 19:52:00,
2013-07-21 15:57:00,88.0,65.8,29.91,WNW,286,1.0,2.0,48,0.00,,,0.00,meteohub,2013-07-21 19:57:00,
2013-07-21 16:02:00,86.5,64.6,29.91,WNW,286,2.0,2.0,48,0.00,,,0.00,meteohub,2013-07-21 20:02:00,
2013-07-21 16:07:00,86.4,64.9,29.91,WSW,245,0.0,2.0,49,0.00,,,0.00,meteohub,2013-07-21 20:07:00,
2013-07-21 16:12:00,85.8,65.7,29.91,North,350,0.0,2.0,51,0.00,,,0.00,meteohub,2013-07-21 20:12:00,
2013-07-21 16:17:00,85.5,66.4,29.91,North,349,0.0,2.0,53,0.00,,,0.00,meteohub,2013-07-21 20:17:00,
2013-07-21 16:22:00,85.1,66.6,29.91,East,86,0.0,2.0,54,0.00,,,0.00,meteohub,2013-07-21 20:22:00,
2013-07-21 16:27:00,84.9,66.4,29.91,East,86,0.0,3.0,54,0.00,,,0.00,meteohub,2013-07-21 20:27:00,
2013-07-21 16:32:00,85.6,66.6,29.91,East,86,0.0,3.0,53,0.00,,,0.00,meteohub,2013-07-21 20:32:00,
2013-07-21 16:37:00,85.6,66.6,29.91,SE,125,0.0,1.0,53,0.00,,,0.00,meteohub,2013-07-21 20:37:00,
2013-07-21 16:42:00,85.3,67.3,29.91,SE,138,0.0,1.0,55,0.00,,,0.00,meteohub,2013-07-21 20:42:00,
2013-07-21 16:47:00,84.4,66.4,29.90,SE,141,0.0,3.0,55,0.00,,,0.00,meteohub,2013-07-21 20:47:00,
2013-07-21 16:52:00,84.0,66.2,29.90,WSW,241,0.0,3.0,55,0.00,,,0.00,meteohub,2013-07-21 20:52:00,
2013-07-21 16:57:00,83.7,66.4,29.91,East,98,1.0,3.0,56,0.00,,,0.00,meteohub,2013-07-21 20:57:00,
2013-07-21 17:02:00,82.9,66.2,29.90,East,98,0.0,3.0,57,0.00,,,0.00,meteohub,2013-07-21 21:02:00,
2013-07-21 17:07:00,82.6,64.8,29.90,East,98,0.0,2.0,55,0.00,,,0.00,meteohub,2013-07-21 21:07:00,
2013-07-21 17:12:00,82.9,66.2,29.90,East,98,0.0,2.0,57,0.00,,,0.00,meteohub,2013-07-21 21:12:00,
2013-07-21 17:17:00,82.4,66.2,29.90,East,98,0.0,2.0,58,0.00,,,0.00,meteohub,2013-07-21 21:17:00,
2013-07-21 17:22:00,82.6,66.7,29.90,East,98,0.0,2.0,59,0.00,,,0.00,meteohub,2013-07-21 21:22:00,
2013-07-21 17:27:00,82.0,66.7,29.90,East,98,0.0,1.0,60,0.00,,,0.00,meteohub,2013-07-21 21:27:00,
2013-07-21 17:32:00,82.9,67.6,29.90,East,98,0.0,1.0,60,0.00,,,0.00,meteohub,2013-07-21 21:32:00,
2013-07-21 17:37:00,83.3,66.6,29.90,East,98,0.0,1.0,57,0.00,,,0.00,meteohub,2013-07-21 21:37:00,
2013-07-21 17:42:00,83.1,64.2,29.90,East,98,0.0,1.0,53,0.00,,,0.00,meteohub,2013-07-21 21:42:00,
2013-07-21 17:47:00,82.8,64.9,29.90,East,98,0.0,1.0,55,0.00,,,0.00,meteohub,2013-07-21 21:47:00,
2013-07-21 17:52:00,82.0,64.2,29.90,East,98,0.0,1.0,55,0.00,,,0.00,meteohub,2013-07-21 21:52:00,
2013-07-21 17:57:00,82.2,66.0,29.89,East,98,0.0,1.0,58,0.00,,,0.00,meteohub,2013-07-21 21:57:00,
2013-07-21 18:02:00,81.7,66.9,29.90,East,98,0.0,1.0,61,0.00,,,0.00,meteohub,2013-07-21 22:02:00,
2013-07-21 18:07:00,81.3,67.5,29.90,East,98,0.0,0.0,63,0.00,,,0.00,meteohub,2013-07-21 22:07:00,
2013-07-21 18:12:00,81.3,68.0,29.90,East,98,0.0,0.0,64,0.00,,,0.00,meteohub,2013-07-21 22:12:00,
2013-07-21 18:17:00,81.3,67.5,29.89,East,98,0.0,0.0,63,0.00,,,0.00,meteohub,2013-07-21 22:17:00,
2013-07-21 18:22:00,81.5,67.6,29.89,East,98,0.0,0.0,63,0.00,,,0.00,meteohub,2013-07-21 22:22:00,
2013-07-21 18:27:00,81.3,67.5,29.90,East,98,0.0,0.0,63,0.00,,,0.00,meteohub,2013-07-21 22:27:00,
2013-07-21 18:32:00,81.1,67.8,29.89,East,98,0.0,0.0,64,0.00,,,0.00,meteohub,2013-07-21 22:32:00,
2013-07-21 18:37:00,81.0,68.0,29.90,East,98,0.0,0.0,65,0.00,,,0.00,meteohub,2013-07-21 22:37:00,
2013-07-21 18:42:00,80.6,68.5,29.90,East,98,0.0,0.0,67,0.00,,,0.00,meteohub,2013-07-21 22:42:00,
2013-07-21 18:47:00,80.2,69.1,29.90,East,98,0.0,0.0,69,0.00,,,0.00,meteohub,2013-07-21 22:47:00,
2013-07-21 18:52:00,79.9,69.3,29.90,East,98,0.0,0.0,70,0.00,,,0.00,meteohub,2013-07-21 22:52:00,
2013-07-21 18:57:00,79.5,68.9,29.90,East,98,0.0,0.0,70,0.00,,,0.00,meteohub,2013-07-21 22:57:00,
2013-07-21 19:02:00,79.5,68.9,29.90,East,98,0.0,0.0,70,0.00,,,0.00,meteohub,2013-07-21 23:02:00,
2013-07-21 19:07:00,79.5,69.3,29.90,East,98,0.0,0.0,71,0.00,,,0.00,meteohub,2013-07-21 23:07:00,
2013-07-21 19:12:00,79.3,68.7,29.91,East,98,0.0,0.0,70,0.00,,,0.00,meteohub,2013-07-21 23:12:00,
2013-07-21 19:17:00,79.0,68.7,29.91,East,98,0.0,0.0,71,0.00,,,0.00,meteohub,2013-07-21 23:17:00,
2013-07-21 19:22:00,78.8,67.8,29.91,East,98,0.0,0.0,69,0.00,,,0.00,meteohub,2013-07-21 23:22:00,
2013-07-21 19:27:00,78.6,68.4,29.91,East,98,0.0,0.0,71,0.00,,,0.00,meteohub,2013-07-21 23:27:00,
2013-07-21 19:32:00,78.8,67.8,29.90,East,98,0.0,0.0,69,0.00,,,0.00,meteohub,2013-07-21 23:32:00,
2013-07-21 19:37:00,78.4,67.5,29.91,East,98,0.0,0.0,69,0.00,,,0.00,meteohub,2013-07-21 23:37:00,
2013-07-21 19:42:00,77.9,68.2,29.91,East,98,0.0,0.0,72,0.00,,,0.00,meteohub,2013-07-21 23:42:00,
2013-07-21 19:47:00,77.7,68.7,29.91,East,98,0.0,0.0,74,0.00,,,0.00,meteohub,2013-07-21 23:47:00,
2013-07-21 19:52:00,77.7,69.1,29.91,East,98,0.0,0.0,75,0.00,,,0.00,meteohub,2013-07-21 23:52:00,
2013-07-21 19:57:00,77.2,69.1,29.91,East,98,0.0,0.0,76,0.00,,,0.00,meteohub,2013-07-21 23:57:00,
2013-07-21 20:02:00,77.2,69.1,29.91,East,98,0.0,0.0,76,0.00,,,0.00,meteohub,2013-07-22 00:02:00,
2013-07-21 20:07:00,77.2,68.7,29.91,East,98,0.0,0.0,75,0.00,,,0.00,meteohub,2013-07-22 00:07:00,
2013-07-21 20:12:00,76.5,68.7,29.91,East,98,0.0,0.0,77,0.00,,,0.00,meteohub,2013-07-22 00:12:00,
2013-07-21 20:17:00,76.5,68.7,29.91,East,98,0.0,0.0,77,0.00,,,0.00,meteohub,2013-07-22 00:17:00,
2013-07-21 20:22:00,76.1,68.4,29.91,East,98,0.0,0.0,77,0.00,,,0.00,meteohub,2013-07-22 00:22:00,
2013-07-21 20:27:00,75.9,68.9,29.91,East,98,0.0,0.0,79,0.00,,,0.00,meteohub,2013-07-22 00:27:00,
2013-07-21 20:32:00,75.4,69.1,29.92,East,98,0.0,0.0,81,0.00,,,0.00,meteohub,2013-07-22 00:32:00,
2013-07-21 20:37:00,75.0,68.7,29.92,East,98,0.0,1.0,81,0.00,,,0.00,meteohub,2013-07-22 00:37:00,
2013-07-21 20:42:00,74.7,68.4,29.92,East,98,0.0,1.0,81,0.00,,,0.00,meteohub,2013-07-22 00:42:00,
2013-07-21 20:47:00,74.1,68.0,29.92,East,98,0.0,0.0,81,0.00,,,0.00,meteohub,2013-07-22 00:47:00,
2013-07-21 20:52:00,74.5,68.2,29.92,East,98,0.0,0.0,81,0.00,,,0.00,meteohub,2013-07-22 00:52:00,
2013-07-21 20:57:00,74.5,68.5,29.92,East,98,0.0,0.0,82,0.00,,,0.00,meteohub,2013-07-22 00:57:00,
2013-07-21 21:02:00,74.1,68.2,29.93,East,98,0.0,0.0,82,0.00,,,0.00,meteohub,2013-07-22 01:02:00,
2013-07-21 21:07:00,73.9,68.2,29.93,East,98,0.0,0.0,82,0.00,,,0.00,meteohub,2013-07-22 01:07:00,
2013-07-21 21:12:00,73.9,68.4,29.93,East,98,0.0,0.0,83,0.00,,,0.00,meteohub,2013-07-22 01:12:00,
2013-07-21 21:17:00,73.9,68.4,29.94,East,98,0.0,0.0,83,0.00,,,0.00,meteohub,2013-07-22 01:17:00,
2013-07-21 21:22:00,73.9,68.4,29.94,East,98,0.0,0.0,83,0.00,,,0.00,meteohub,2013-07-22 01:22:00,
2013-07-21 21:27:00,73.8,68.4,29.94,East,98,0.0,0.0,83,0.00,,,0.00,meteohub,2013-07-22 01:27:00,
2013-07-21 21:32:00,73.6,67.8,29.94,East,98,0.0,0.0,82,0.00,,,0.00,meteohub,2013-07-22 01:32:00,
2013-07-21 21:37:00,73.6,67.5,29.95,East,98,0.0,0.0,81,0.00,,,0.00,meteohub,2013-07-22 01:37:00,
2013-07-21 21:42:00,73.8,68.0,29.95,East,98,0.0,0.0,82,0.00,,,0.00,meteohub,2013-07-22 01:42:00,
2013-07-21 21:47:00,73.6,67.5,29.95,East,98,0.0,0.0,81,0.00,,,0.00,meteohub,2013-07-22 01:47:00,
2013-07-21 21:52:00,73.4,67.6,29.95,East,98,0.0,0.0,82,0.00,,,0.00,meteohub,2013-07-22 01:52:00,
2013-07-21 21:57:00,73.2,68.2,29.96,East,98,0.0,0.0,84,0.00,,,0.00,meteohub,2013-07-22 01:57:00,
2013-07-21 22:02:00,73.2,67.8,29.96,East,98,0.0,0.0,83,0.00,,,0.00,meteohub,2013-07-22 02:02:00,
2013-07-21 22:07:00,73.0,68.0,29.96,East,98,0.0,0.0,84,0.00,,,0.00,meteohub,2013-07-22 02:07:00,
2013-07-21 22:12:00,72.9,67.8,29.96,East,98,0.0,0.0,84,0.00,,,0.00,meteohub,2013-07-22 02:12:00,
2013-07-21 22:17:00,72.7,67.6,29.96,East,98,0.0,0.0,84,0.00,,,0.00,meteohub,2013-07-22 02:17:00,
2013-07-21 22:22:00,72.3,67.6,29.96,East,98,0.0,0.0,85,0.00,,,0.00,meteohub,2013-07-22 02:22:00,
2013-07-21 22:27:00,72.1,67.5,29.96,East,98,0.0,0.0,85,0.00,,,0.00,meteohub,2013-07-22 02:27:00,
2013-07-21 22:32:00,72.0,67.3,29.95,East,98,0.0,0.0,85,0.00,,,0.00,meteohub,2013-07-22 02:32:00,
2013-07-21 22:37:00,71.8,67.3,29.95,East,98,0.0,0.0,86,0.00,,,0.00,meteohub,2013-07-22 02:37:00,
2013-07-21 22:42:00,71.6,67.1,29.95,East,98,0.0,0.0,86,0.00,,,0.00,meteohub,2013-07-22 02:42:00,
2013-07-21 22:47:00,71.4,67.1,29.95,East,98,0.0,0.0,86,0.00,,,0.00,meteohub,2013-07-22 02:47:00,
2013-07-21 22:52:00,71.2,67.1,29.95,East,98,0.0,0.0,87,0.00,,,0.00,meteohub,2013-07-22 02:52:00,
2013-07-21 22:57:00,71.2,67.5,29.96,East,98,0.0,0.0,88,0.00,,,0.00,meteohub,2013-07-22 02:57:00,
2013-07-21 23:02:00,71.1,67.3,29.95,East,98,0.0,0.0,88,0.00,,,0.00,meteohub,2013-07-22 03:02:00,
2013-07-21 23:07:00,71.1,67.3,29.95,East,98,0.0,0.0,88,0.00,,,0.00,meteohub,2013-07-22 03:07:00,
2013-07-21 23:12:00,71.1,67.3,29.95,East,98,0.0,0.0,88,0.00,,,0.00,meteohub,2013-07-22 03:12:00,
2013-07-21 23:17:00,70.9,67.1,29.95,East,98,0.0,0.0,88,0.00,,,0.00,meteohub,2013-07-22 03:17:00,
2013-07-21 23:22:00,70.9,67.5,29.95,East,98,0.0,0.0,89,0.00,,,0.00,meteohub,2013-07-22 03:22:00,
2013-07-21 23:27:00,70.7,67.3,29.96,East,98,0.0,0.0,89,0.00,,,0.00,meteohub,2013-07-22 03:27:00,
2013-07-21 23:32:00,70.3,66.9,29.96,East,98,0.0,0.0,89,0.00,,,0.00,meteohub,2013-07-22 03:32:00,
2013-07-21 23:37:00,70.2,66.7,29.96,East,98,0.0,0.0,89,0.00,,,0.00,meteohub,2013-07-22 03:37:00,
2013-07-21 23:42:00,70.0,66.9,29.96,East,98,0.0,0.0,90,0.00,,,0.00,meteohub,2013-07-22 03:42:00,
2013-07-21 23:47:00,69.6,66.6,29.96,East,98,0.0,0.0,90,0.00,,,0.00,meteohub,2013-07-22 03:47:00,
2013-07-21 23:52:00,69.4,66.7,29.96,East,98,0.0,0.0,91,0.00,,,0.00,meteohub,2013-07-22 03:52:00,
2013-07-21 23:57:00,69.4,66.7,29.96,East,98,0.0,0.0,91,0.00,,,0.00,meteohub,2013-07-22 03:57:00,